Royal Melbourne — WDC2865 — position and weather

sailwx.info

Track history (hours):
 
Tides and Currents Weather Stations Pressure Air Temp Water Temp Dewpoint Dewpoint Depression Visibility Wind Speed Wind Dir Waves Ship Positions

Royal Melbourne

Owner: Harley Marine Services, Inc, Seattle, WA. More information available from US FCC via Universal Licensing System and Coast Guard Vessel Documentation Center.

Last reported at 2015-Aug-01 17:33 UTC. Time now 2015-Aug-01 18:14 UTC.
Position N 37°45' W 122°20'.

Length 30 m; draft 2 m.

Type: Tug. MMSI: 366998830.

Date/timePositionNaut miles runAvg speedWind from/ knotsBaromVisibWave heightAir tempDewpointWater temp
2015-Aug-01 17:33N 37°45' W 122°20'4 3.8
2015-Aug-01 16:31N 37°49' W 122°19'0 0.0
2015-Aug-01 15:31N 37°49' W 122°19'0 0.3
2015-Aug-01 14:33N 37°49' W 122°20'3 2.5
2015-Aug-01 13:33N 37°48' W 122°17'0 0.0
2015-Aug-01 12:33N 37°48' W 122°17'0 0.0
2015-Aug-01 11:33N 37°48' W 122°17'0 0.0
2015-Aug-01 10:33N 37°48' W 122°17'0 0.0
2015-Aug-01 09:33N 37°48' W 122°17'0 0.0
2015-Aug-01 08:33N 37°48' W 122°17'0 0.0
2015-Aug-01 07:33N 37°48' W 122°17'0 0.0
2015-Aug-01 06:33N 37°48' W 122°17'0 0.0
2015-Aug-01 05:33N 37°48' W 122°17'0 0.0
2015-Aug-01 04:33N 37°48' W 122°17'0 0.0
2015-Aug-01 03:33N 37°48' W 122°17'0 0.0
2015-Aug-01 02:33N 37°48' W 122°17'0 0.0
2015-Aug-01 01:33N 37°48' W 122°17'0 0.0
2015-Aug-01 00:33N 37°48' W 122°17'0 0.0
2015-Jul-31 23:33N 37°48' W 122°17'0 0.0
2015-Jul-31 22:33N 37°48' W 122°17'2 1.6
2015-Jul-31 21:33N 37°48' W 122°19'4 3.9
2015-Jul-31 20:31N 37°48' W 122°24'0 0.0
2015-Jul-31 19:31N 37°48' W 122°24'0 0.0
2015-Jul-31 18:31N 37°48' W 122°24'0 0.0
2015-Jul-31 17:31N 37°48' W 122°24'0 0.0
2015-Jul-31 16:31N 37°48' W 122°24'0 0.0
2015-Jul-31 15:31N 37°48' W 122°24'0 0.0
2015-Jul-31 14:31N 37°48' W 122°24'0 0.4
2015-Jul-31 13:33N 37°48' W 122°24'5 4.9
2015-Jul-31 12:33N 37°48' W 122°17'0 0.3
2015-Jul-31 11:31N 37°48' W 122°17'0 0.0
2015-Jul-31 10:31N 37°48' W 122°17'0 0.0
2015-Jul-31 09:31N 37°48' W 122°17'0 0.0
2015-Jul-31 08:31N 37°48' W 122°17'0 0.0
2015-Jul-31 07:31N 37°48' W 122°17'0 0.0
2015-Jul-31 06:31N 37°48' W 122°17'0 0.0
2015-Jul-31 05:31N 37°48' W 122°17'0 0.0
2015-Jul-31 04:31N 37°48' W 122°17'0 0.0
2015-Jul-31 03:31N 37°48' W 122°17'0 0.0
2015-Jul-31 02:28N 37°48' W 122°17'0 0.0
2015-Jul-31 01:31N 37°48' W 122°17'0 0.0
2015-Jul-31 00:31N 37°48' W 122°17'0 0.0
2015-Jul-30 23:28N 37°48' W 122°17'0 0.0
2015-Jul-30 22:31N 37°48' W 122°17'0 0.0
2015-Jul-30 21:31N 37°48' W 122°17'0 0.0
2015-Jul-30 20:31N 37°48' W 122°17'2 2.3
2015-Jul-30 19:33N 37°48' W 122°20'1 0.7
2015-Jul-30 18:31N 37°49' W 122°20'0 0.0
2015-Jul-30 17:31N 37°49' W 122°20'0 0.0
2015-Jul-30 16:31N 37°49' W 122°20'2 2.4
2015-Jul-30 15:33N 37°48' W 122°18'0 0.4
2015-Jul-30 14:32N 37°48' W 122°17'0 0.0
2015-Jul-30 13:32N 37°48' W 122°17'0 0.0
2015-Jul-30 12:32N 37°48' W 122°17'0 0.0
2015-Jul-30 11:32N 37°48' W 122°17'0 0.0
2015-Jul-30 10:32N 37°48' W 122°17'0 0.0
2015-Jul-30 09:32N 37°48' W 122°17'0 0.0
2015-Jul-30 08:32N 37°48' W 122°17'0 0.3
2015-Jul-30 07:33N 37°48' W 122°17'4 4.2
2015-Jul-30 06:33N 37°44' W 122°20'0 0.2
2015-Jul-30 05:32N 37°44' W 122°19'0 0.0
2015-Jul-30 04:32N 37°44' W 122°19'0 0.0
2015-Jul-30 03:32N 37°44' W 122°19'0 0.0
2015-Jul-30 02:29N 37°44' W 122°19'0 0.0
2015-Jul-30 01:33N 37°44' W 122°19'6 5.8
2015-Jul-30 00:33N 37°49' W 122°23'6 5.7
2015-Jul-29 23:34N 37°54' W 122°24'1 1.5
2015-Jul-29 22:34N 37°55' W 122°22'0 0.0
2015-Jul-29 21:34N 37°55' W 122°22'0 0.0
2015-Jul-29 20:33N 37°55' W 122°22'0 0.0
2015-Jul-29 19:34N 37°55' W 122°22'0 0.0
2015-Jul-29 18:34N 37°55' W 122°22'0 0.0
2015-Jul-29 17:33N 37°55' W 122°22'0 0.0
2015-Jul-29 16:34N 37°55' W 122°22'0 0.0
2015-Jul-29 15:34N 37°55' W 122°22'0 0.0
2015-Jul-29 14:34N 37°55' W 122°22'0 0.0
2015-Jul-29 13:34N 37°55' W 122°22'0 0.0
2015-Jul-29 12:33N 37°55' W 122°22'5 4.7
2015-Jul-29 11:34N 37°50' W 122°23'6 5.6
2015-Jul-29 10:33N 37°45' W 122°21'0 0.0
2015-Jul-29 09:33N 37°45' W 122°21'0 0.0
2015-Jul-29 08:34N 37°45' W 122°21'0 0.0
2015-Jul-29 07:33N 37°45' W 122°21'0 0.1
2015-Jul-29 06:34N 37°45' W 122°21'0 0.2
2015-Jul-29 05:33N 37°45' W 122°21'1 1.3
2015-Jul-29 04:33N 37°44' W 122°21'0 0.0
2015-Jul-29 03:33N 37°44' W 122°21'0 0.0
2015-Jul-29 02:33N 37°44' W 122°21'0 0.0
2015-Jul-29 01:33N 37°44' W 122°21'4 4.3
2015-Jul-29 00:34N 37°48' W 122°20'2 2.0
2015-Jul-28 23:31N 37°48' W 122°17'0 0.0
2015-Jul-28 22:31N 37°48' W 122°17'0 0.0
2015-Jul-28 21:31N 37°48' W 122°17'0 0.0
2015-Jul-28 20:25N 37°48' W 122°17'0 0.0
2015-Jul-28 19:31N 37°48' W 122°17'0 0.0
2015-Jul-28 18:31N 37°48' W 122°17'0 0.0
2015-Jul-28 17:31N 37°48' W 122°17'0 0.0
2015-Jul-28 16:28N 37°48' W 122°17'0 0.0
2015-Jul-28 15:31N 37°48' W 122°17'0 0.0
2015-Jul-28 14:31N 37°48' W 122°17'0 0.0
2015-Jul-28 13:31N 37°48' W 122°17'0 0.0
2015-Jul-28 12:31N 37°48' W 122°17'0 0.0
2015-Jul-28 11:31N 37°48' W 122°17'0 0.0
2015-Jul-28 10:31N 37°48' W 122°17'0 0.0
2015-Jul-28 09:31N 37°48' W 122°17'0 0.0
2015-Jul-28 08:34N 37°48' W 122°17'0 0.0
2015-Jul-28 07:33N 37°48' W 122°17'0 0.0
2015-Jul-28 06:33N 37°48' W 122°17'0 0.0
2015-Jul-28 05:33N 37°48' W 122°17'0 0.0
2015-Jul-28 04:33N 37°48' W 122°17'0 0.0
2015-Jul-28 03:33N 37°48' W 122°17'0 0.0
2015-Jul-28 02:33N 37°48' W 122°17'0 0.0
2015-Jul-28 01:33N 37°48' W 122°17'0 0.0
2015-Jul-28 00:33N 37°48' W 122°17'0 0.0
2015-Jul-27 23:33N 37°48' W 122°17'0 0.0
2015-Jul-27 22:33N 37°48' W 122°17'0 0.0
2015-Jul-27 21:33N 37°48' W 122°17'0 0.0
2015-Jul-27 20:33N 37°48' W 122°17'0 0.0
2015-Jul-27 19:33N 37°48' W 122°17'0 0.0
2015-Jul-27 18:33N 37°48' W 122°17'4 3.8
2015-Jul-27 17:33N 37°49' W 122°21'5 5.3
2015-Jul-27 16:34N 37°54' W 122°23'1 0.9
2015-Jul-27 15:30N 37°55' W 122°22'0 0.0
2015-Jul-27 14:33N 37°55' W 122°22'0 0.0
2015-Jul-27 13:30N 37°55' W 122°22'0 0.0
2015-Jul-27 12:33N 37°55' W 122°22'0 0.0
2015-Jul-27 11:30N 37°55' W 122°22'0 0.0
2015-Jul-27 10:30N 37°55' W 122°22'0 0.0
2015-Jul-27 09:33N 37°55' W 122°22'0 0.0
2015-Jul-27 08:33N 37°55' W 122°22'0 0.0
2015-Jul-27 07:33N 37°55' W 122°22'0 0.1
2015-Jul-27 06:33N 37°55' W 122°22'4 4.2
2015-Jul-27 05:33N 37°51' W 122°24'7 6.9
2015-Jul-27 04:31N 37°44' W 122°21'0 0.1
2015-Jul-27 03:31N 37°44' W 122°21'0 0.0
2015-Jul-27 02:25N 37°44' W 122°21'0 0.0
2015-Jul-27 01:22N 37°44' W 122°21'0 0.0
2015-Jul-27 00:25N 37°44' W 122°21'0 0.0
2015-Jul-26 23:13N 37°44' W 122°21'0 0.0
2015-Jul-26 22:28N 37°44' W 122°21'0 0.1
2015-Jul-26 21:31N 37°44' W 122°21'0 0.0
2015-Jul-26 20:31N 37°44' W 122°21'0 0.1
2015-Jul-26 19:33N 37°44' W 122°21'2 1.7
2015-Jul-26 18:33N 37°46' W 122°20'0 0.0
2015-Jul-26 17:33N 37°46' W 122°20'0 0.2
2015-Jul-26 16:33N 37°46' W 122°20'0 0.1
2015-Jul-26 15:33N 37°46' W 122°20'0 0.0
2015-Jul-26 14:30N 37°46' W 122°20'0 0.0
2015-Jul-26 13:33N 37°46' W 122°20'1 1.1
2015-Jul-26 12:34N 37°47' W 122°21'8 7.8
2015-Jul-26 11:34N 37°54' W 122°24'2 2.2
2015-Jul-26 10:33N 37°55' W 122°22'0 0.0
2015-Jul-26 09:30N 37°55' W 122°22'0 0.0
2015-Jul-26 08:33N 37°55' W 122°22'0 0.0
2015-Jul-26 07:30N 37°55' W 122°22'0 0.0
2015-Jul-26 06:33N 37°55' W 122°22'0 0.0
2015-Jul-26 05:30N 37°55' W 122°22'0 0.0
2015-Jul-26 04:33N 37°55' W 122°22'0 0.0
2015-Jul-26 03:33N 37°55' W 122°22'0 0.0
2015-Jul-26 02:30N 37°55' W 122°22'0 0.0
2015-Jul-26 01:33N 37°55' W 122°22'0 0.0
2015-Jul-26 00:33N 37°55' W 122°22'0 0.0
2015-Jul-25 23:30N 37°55' W 122°22'0 0.0
2015-Jul-25 22:30N 37°55' W 122°22'0 0.0
2015-Jul-25 21:24N 37°55' W 122°22'0 0.0
2015-Jul-25 20:33N 37°55' W 122°22'0 0.0
2015-Jul-25 19:30N 37°55' W 122°22'0 0.0
2015-Jul-25 18:30N 37°55' W 122°22'0 0.0
2015-Jul-25 17:27N 37°55' W 122°22'0 0.0
2015-Jul-25 16:30N 37°55' W 122°22'0 0.0
2015-Jul-25 15:33N 37°55' W 122°22'0 0.0
2015-Jul-25 14:30N 37°55' W 122°22'0 0.0
2015-Jul-25 13:33N 37°55' W 122°22'0 0.0
2015-Jul-25 12:33N 37°55' W 122°22'0 0.0
2015-Jul-25 11:33N 37°55' W 122°22'0 0.0
2015-Jul-25 10:30N 37°55' W 122°22'4 4.1
2015-Jul-25 09:33N 37°57' W 122°26'1010.0
2015-Jul-25 08:31N 38°04' W 122°16'6 6.5
2015-Jul-25 07:33N 38°02' W 122°08'0 0.0
2015-Jul-25 06:04N 38°02' W 122°08'0 0.0
2015-Jul-25 04:28N 38°02' W 122°08'0 0.0
2015-Jul-25 03:16N 38°02' W 122°08'3 0.4
2015-Jul-24 18:28N 38°03' W 122°12'3 0.2
2015-Jul-24 05:18N 38°03' W 122°16'6 8.1
2015-Jul-24 04:33N 38°01' W 122°23'8 7.9
2015-Jul-24 03:33N 37°54' W 122°25'10 9.6
2015-Jul-24 02:33N 37°45' W 122°20'0 0.2
2015-Jul-24 01:25N 37°45' W 122°20'0 0.1
2015-Jul-24 00:31N 37°45' W 122°20'0 0.0
2015-Jul-23 23:31N 37°45' W 122°20'0 0.0
2015-Jul-23 22:31N 37°45' W 122°20'0 0.1
2015-Jul-23 21:31N 37°45' W 122°20'0 0.0
2015-Jul-23 20:31N 37°45' W 122°20'0 0.1
2015-Jul-23 19:31N 37°45' W 122°20'0 0.2
2015-Jul-23 18:33N 37°45' W 122°20'1 1.3
2015-Jul-23 17:33N 37°46' W 122°20'3 2.9
2015-Jul-23 16:33N 37°48' W 122°17'0 0.0
2015-Jul-23 15:32N 37°48' W 122°17'0 0.0
2015-Jul-23 14:31N 37°48' W 122°17'0 0.0
2015-Jul-23 13:31N 37°48' W 122°17'0 0.0
2015-Jul-23 12:31N 37°48' W 122°17'0 0.0
2015-Jul-23 11:31N 37°48' W 122°17'0 0.0
2015-Jul-23 10:31N 37°48' W 122°17'0 0.0
2015-Jul-23 09:31N 37°48' W 122°17'0 0.0
2015-Jul-23 08:31N 37°48' W 122°17'0 0.0
2015-Jul-23 07:31N 37°48' W 122°17'0 0.0
2015-Jul-23 06:31N 37°48' W 122°17'0 0.0
2015-Jul-23 05:31N 37°48' W 122°17'0 0.0
2015-Jul-23 04:31N 37°48' W 122°17'0 0.0
2015-Jul-23 03:31N 37°48' W 122°17'0 0.0
2015-Jul-23 02:31N 37°48' W 122°17'0 0.0
2015-Jul-23 01:31N 37°48' W 122°17'0 0.0
2015-Jul-23 00:31N 37°48' W 122°17'0 0.0
2015-Jul-22 23:31N 37°48' W 122°17'0 0.0
2015-Jul-22 22:31N 37°48' W 122°17'0 0.0
2015-Jul-22 21:31N 37°48' W 122°17'0 0.0
2015-Jul-22 20:31N 37°48' W 122°17'0 0.0
2015-Jul-22 19:31N 37°48' W 122°17'0 0.0
2015-Jul-22 18:31N 37°48' W 122°17'  
Track history (hours):
 
Tides and Currents Weather Stations Pressure Air Temp Water Temp Dewpoint Dewpoint Depression Visibility Wind Speed Wind Dir Waves Ship Positions

Royal Melbourne

Owner: Harley Marine Services, Inc, Seattle, WA. More information available from US FCC via Universal Licensing System and Coast Guard Vessel Documentation Center.

Last reported at 2015-Aug-01 17:33 UTC. Time now 2015-Aug-01 18:14 UTC.
Position N 37°45' W 122°20'.

Length 30 m; draft 2 m.

Type: Tug. MMSI: 366998830.

Date/timePositionNaut miles runAvg speedWind from/ knotsBaromVisibWave heightAir tempDewpointWater temp
2015-Aug-01 17:33N 37°45' W 122°20'4 3.8
2015-Aug-01 16:31N 37°49' W 122°19'0 0.0
2015-Aug-01 15:31N 37°49' W 122°19'0 0.3
2015-Aug-01 14:33N 37°49' W 122°20'3 2.5
2015-Aug-01 13:33N 37°48' W 122°17'0 0.0
2015-Aug-01 12:33N 37°48' W 122°17'0 0.0
2015-Aug-01 11:33N 37°48' W 122°17'0 0.0
2015-Aug-01 10:33N 37°48' W 122°17'0 0.0
2015-Aug-01 09:33N 37°48' W 122°17'0 0.0
2015-Aug-01 08:33N 37°48' W 122°17'0 0.0
2015-Aug-01 07:33N 37°48' W 122°17'0 0.0
2015-Aug-01 06:33N 37°48' W 122°17'0 0.0
2015-Aug-01 05:33N 37°48' W 122°17'0 0.0
2015-Aug-01 04:33N 37°48' W 122°17'0 0.0
2015-Aug-01 03:33N 37°48' W 122°17'0 0.0
2015-Aug-01 02:33N 37°48' W 122°17'0 0.0
2015-Aug-01 01:33N 37°48' W 122°17'0 0.0
2015-Aug-01 00:33N 37°48' W 122°17'0 0.0
2015-Jul-31 23:33N 37°48' W 122°17'0 0.0
2015-Jul-31 22:33N 37°48' W 122°17'2 1.6
2015-Jul-31 21:33N 37°48' W 122°19'4 3.9
2015-Jul-31 20:31N 37°48' W 122°24'0 0.0
2015-Jul-31 19:31N 37°48' W 122°24'0 0.0
2015-Jul-31 18:31N 37°48' W 122°24'0 0.0
2015-Jul-31 17:31N 37°48' W 122°24'0 0.0
2015-Jul-31 16:31N 37°48' W 122°24'0 0.0
2015-Jul-31 15:31N 37°48' W 122°24'0 0.0
2015-Jul-31 14:31N 37°48' W 122°24'0 0.4
2015-Jul-31 13:33N 37°48' W 122°24'5 4.9
2015-Jul-31 12:33N 37°48' W 122°17'0 0.3
2015-Jul-31 11:31N 37°48' W 122°17'0 0.0
2015-Jul-31 10:31N 37°48' W 122°17'0 0.0
2015-Jul-31 09:31N 37°48' W 122°17'0 0.0
2015-Jul-31 08:31N 37°48' W 122°17'0 0.0
2015-Jul-31 07:31N 37°48' W 122°17'0 0.0
2015-Jul-31 06:31N 37°48' W 122°17'0 0.0
2015-Jul-31 05:31N 37°48' W 122°17'0 0.0
2015-Jul-31 04:31N 37°48' W 122°17'0 0.0
2015-Jul-31 03:31N 37°48' W 122°17'0 0.0
2015-Jul-31 02:28N 37°48' W 122°17'0 0.0
2015-Jul-31 01:31N 37°48' W 122°17'0 0.0
2015-Jul-31 00:31N 37°48' W 122°17'0 0.0
2015-Jul-30 23:28N 37°48' W 122°17'0 0.0
2015-Jul-30 22:31N 37°48' W 122°17'0 0.0
2015-Jul-30 21:31N 37°48' W 122°17'0 0.0
2015-Jul-30 20:31N 37°48' W 122°17'2 2.3
2015-Jul-30 19:33N 37°48' W 122°20'1 0.7
2015-Jul-30 18:31N 37°49' W 122°20'0 0.0
2015-Jul-30 17:31N 37°49' W 122°20'0 0.0
2015-Jul-30 16:31N 37°49' W 122°20'2 2.4
2015-Jul-30 15:33N 37°48' W 122°18'0 0.4
2015-Jul-30 14:32N 37°48' W 122°17'0 0.0
2015-Jul-30 13:32N 37°48' W 122°17'0 0.0
2015-Jul-30 12:32N 37°48' W 122°17'0 0.0
2015-Jul-30 11:32N 37°48' W 122°17'0 0.0
2015-Jul-30 10:32N 37°48' W 122°17'0 0.0
2015-Jul-30 09:32N 37°48' W 122°17'0 0.0
2015-Jul-30 08:32N 37°48' W 122°17'0 0.3
2015-Jul-30 07:33N 37°48' W 122°17'4 4.2
2015-Jul-30 06:33N 37°44' W 122°20'0 0.2
2015-Jul-30 05:32N 37°44' W 122°19'0 0.0
2015-Jul-30 04:32N 37°44' W 122°19'0 0.0
2015-Jul-30 03:32N 37°44' W 122°19'0 0.0
2015-Jul-30 02:29N 37°44' W 122°19'0 0.0
2015-Jul-30 01:33N 37°44' W 122°19'6 5.8
2015-Jul-30 00:33N 37°49' W 122°23'6 5.7
2015-Jul-29 23:34N 37°54' W 122°24'1 1.5
2015-Jul-29 22:34N 37°55' W 122°22'0 0.0
2015-Jul-29 21:34N 37°55' W 122°22'0 0.0
2015-Jul-29 20:33N 37°55' W 122°22'0 0.0
2015-Jul-29 19:34N 37°55' W 122°22'0 0.0
2015-Jul-29 18:34N 37°55' W 122°22'0 0.0
2015-Jul-29 17:33N 37°55' W 122°22'0 0.0
2015-Jul-29 16:34N 37°55' W 122°22'0 0.0
2015-Jul-29 15:34N 37°55' W 122°22'0 0.0
2015-Jul-29 14:34N 37°55' W 122°22'0 0.0
2015-Jul-29 13:34N 37°55' W 122°22'0 0.0
2015-Jul-29 12:33N 37°55' W 122°22'5 4.7
2015-Jul-29 11:34N 37°50' W 122°23'6 5.6
2015-Jul-29 10:33N 37°45' W 122°21'0 0.0
2015-Jul-29 09:33N 37°45' W 122°21'0 0.0
2015-Jul-29 08:34N 37°45' W 122°21'0 0.0
2015-Jul-29 07:33N 37°45' W 122°21'0 0.1
2015-Jul-29 06:34N 37°45' W 122°21'0 0.2
2015-Jul-29 05:33N 37°45' W 122°21'1 1.3
2015-Jul-29 04:33N 37°44' W 122°21'0 0.0
2015-Jul-29 03:33N 37°44' W 122°21'0 0.0
2015-Jul-29 02:33N 37°44' W 122°21'0 0.0
2015-Jul-29 01:33N 37°44' W 122°21'4 4.3
2015-Jul-29 00:34N 37°48' W 122°20'2 2.0
2015-Jul-28 23:31N 37°48' W 122°17'0 0.0
2015-Jul-28 22:31N 37°48' W 122°17'0 0.0
2015-Jul-28 21:31N 37°48' W 122°17'0 0.0
2015-Jul-28 20:25N 37°48' W 122°17'0 0.0
2015-Jul-28 19:31N 37°48' W 122°17'0 0.0
2015-Jul-28 18:31N 37°48' W 122°17'0 0.0
2015-Jul-28 17:31N 37°48' W 122°17'0 0.0
2015-Jul-28 16:28N 37°48' W 122°17'0 0.0
2015-Jul-28 15:31N 37°48' W 122°17'0 0.0
2015-Jul-28 14:31N 37°48' W 122°17'0 0.0
2015-Jul-28 13:31N 37°48' W 122°17'0 0.0
2015-Jul-28 12:31N 37°48' W 122°17'0 0.0
2015-Jul-28 11:31N 37°48' W 122°17'0 0.0
2015-Jul-28 10:31N 37°48' W 122°17'0 0.0
2015-Jul-28 09:31N 37°48' W 122°17'0 0.0
2015-Jul-28 08:34N 37°48' W 122°17'0 0.0
2015-Jul-28 07:33N 37°48' W 122°17'0 0.0
2015-Jul-28 06:33N 37°48' W 122°17'0 0.0
2015-Jul-28 05:33N 37°48' W 122°17'0 0.0
2015-Jul-28 04:33N 37°48' W 122°17'0 0.0
2015-Jul-28 03:33N 37°48' W 122°17'0 0.0
2015-Jul-28 02:33N 37°48' W 122°17'0 0.0
2015-Jul-28 01:33N 37°48' W 122°17'0 0.0
2015-Jul-28 00:33N 37°48' W 122°17'0 0.0
2015-Jul-27 23:33N 37°48' W 122°17'0 0.0
2015-Jul-27 22:33N 37°48' W 122°17'0 0.0
2015-Jul-27 21:33N 37°48' W 122°17'0 0.0
2015-Jul-27 20:33N 37°48' W 122°17'0 0.0
2015-Jul-27 19:33N 37°48' W 122°17'0 0.0
2015-Jul-27 18:33N 37°48' W 122°17'4 3.8
2015-Jul-27 17:33N 37°49' W 122°21'5 5.3
2015-Jul-27 16:34N 37°54' W 122°23'1 0.9
2015-Jul-27 15:30N 37°55' W 122°22'0 0.0
2015-Jul-27 14:33N 37°55' W 122°22'0 0.0
2015-Jul-27 13:30N 37°55' W 122°22'0 0.0
2015-Jul-27 12:33N 37°55' W 122°22'0 0.0
2015-Jul-27 11:30N 37°55' W 122°22'0 0.0
2015-Jul-27 10:30N 37°55' W 122°22'0 0.0
2015-Jul-27 09:33N 37°55' W 122°22'0 0.0
2015-Jul-27 08:33N 37°55' W 122°22'0 0.0
2015-Jul-27 07:33N 37°55' W 122°22'0 0.1
2015-Jul-27 06:33N 37°55' W 122°22'4 4.2
2015-Jul-27 05:33N 37°51' W 122°24'7 6.9
2015-Jul-27 04:31N 37°44' W 122°21'0 0.1
2015-Jul-27 03:31N 37°44' W 122°21'0 0.0
2015-Jul-27 02:25N 37°44' W 122°21'0 0.0
2015-Jul-27 01:22N 37°44' W 122°21'0 0.0
2015-Jul-27 00:25N 37°44' W 122°21'0 0.0
2015-Jul-26 23:13N 37°44' W 122°21'0 0.0
2015-Jul-26 22:28N 37°44' W 122°21'0 0.1
2015-Jul-26 21:31N 37°44' W 122°21'0 0.0
2015-Jul-26 20:31N 37°44' W 122°21'0 0.1
2015-Jul-26 19:33N 37°44' W 122°21'2 1.7
2015-Jul-26 18:33N 37°46' W 122°20'0 0.0
2015-Jul-26 17:33N 37°46' W 122°20'0 0.2
2015-Jul-26 16:33N 37°46' W 122°20'0 0.1
2015-Jul-26 15:33N 37°46' W 122°20'0 0.0
2015-Jul-26 14:30N 37°46' W 122°20'0 0.0
2015-Jul-26 13:33N 37°46' W 122°20'1 1.1
2015-Jul-26 12:34N 37°47' W 122°21'8 7.8
2015-Jul-26 11:34N 37°54' W 122°24'2 2.2
2015-Jul-26 10:33N 37°55' W 122°22'0 0.0
2015-Jul-26 09:30N 37°55' W 122°22'0 0.0
2015-Jul-26 08:33N 37°55' W 122°22'0 0.0
2015-Jul-26 07:30N 37°55' W 122°22'0 0.0
2015-Jul-26 06:33N 37°55' W 122°22'0 0.0
2015-Jul-26 05:30N 37°55' W 122°22'0 0.0
2015-Jul-26 04:33N 37°55' W 122°22'0 0.0
2015-Jul-26 03:33N 37°55' W 122°22'0 0.0
2015-Jul-26 02:30N 37°55' W 122°22'0 0.0
2015-Jul-26 01:33N 37°55' W 122°22'0 0.0
2015-Jul-26 00:33N 37°55' W 122°22'0 0.0
2015-Jul-25 23:30N 37°55' W 122°22'0 0.0
2015-Jul-25 22:30N 37°55' W 122°22'0 0.0
2015-Jul-25 21:24N 37°55' W 122°22'0 0.0
2015-Jul-25 20:33N 37°55' W 122°22'0 0.0
2015-Jul-25 19:30N 37°55' W 122°22'0 0.0
2015-Jul-25 18:30N 37°55' W 122°22'0 0.0
2015-Jul-25 17:27N 37°55' W 122°22'0 0.0
2015-Jul-25 16:30N 37°55' W 122°22'0 0.0
2015-Jul-25 15:33N 37°55' W 122°22'0 0.0
2015-Jul-25 14:30N 37°55' W 122°22'0 0.0
2015-Jul-25 13:33N 37°55' W 122°22'0 0.0
2015-Jul-25 12:33N 37°55' W 122°22'0 0.0
2015-Jul-25 11:33N 37°55' W 122°22'0 0.0
2015-Jul-25 10:30N 37°55' W 122°22'4 4.1
2015-Jul-25 09:33N 37°57' W 122°26'1010.0
2015-Jul-25 08:31N 38°04' W 122°16'6 6.5
2015-Jul-25 07:33N 38°02' W 122°08'0 0.0
2015-Jul-25 06:04N 38°02' W 122°08'0 0.0
2015-Jul-25 04:28N 38°02' W 122°08'0 0.0
2015-Jul-25 03:16N 38°02' W 122°08'3 0.4
2015-Jul-24 18:28N 38°03' W 122°12'3 0.2
2015-Jul-24 05:18N 38°03' W 122°16'6 8.1
2015-Jul-24 04:33N 38°01' W 122°23'8 7.9
2015-Jul-24 03:33N 37°54' W 122°25'10 9.6
2015-Jul-24 02:33N 37°45' W 122°20'0 0.2
2015-Jul-24 01:25N 37°45' W 122°20'0 0.1
2015-Jul-24 00:31N 37°45' W 122°20'0 0.0
2015-Jul-23 23:31N 37°45' W 122°20'0 0.0
2015-Jul-23 22:31N 37°45' W 122°20'0 0.1
2015-Jul-23 21:31N 37°45' W 122°20'0 0.0
2015-Jul-23 20:31N 37°45' W 122°20'0 0.1
2015-Jul-23 19:31N 37°45' W 122°20'0 0.2
2015-Jul-23 18:33N 37°45' W 122°20'1 1.3
2015-Jul-23 17:33N 37°46' W 122°20'3 2.9
2015-Jul-23 16:33N 37°48' W 122°17'0 0.0
2015-Jul-23 15:32N 37°48' W 122°17'0 0.0
2015-Jul-23 14:31N 37°48' W 122°17'0 0.0
2015-Jul-23 13:31N 37°48' W 122°17'0 0.0
2015-Jul-23 12:31N 37°48' W 122°17'0 0.0
2015-Jul-23 11:31N 37°48' W 122°17'0 0.0
2015-Jul-23 10:31N 37°48' W 122°17'0 0.0
2015-Jul-23 09:31N 37°48' W 122°17'0 0.0
2015-Jul-23 08:31N 37°48' W 122°17'0 0.0
2015-Jul-23 07:31N 37°48' W 122°17'0 0.0
2015-Jul-23 06:31N 37°48' W 122°17'0 0.0
2015-Jul-23 05:31N 37°48' W 122°17'0 0.0
2015-Jul-23 04:31N 37°48' W 122°17'0 0.0
2015-Jul-23 03:31N 37°48' W 122°17'0 0.0
2015-Jul-23 02:31N 37°48' W 122°17'0 0.0
2015-Jul-23 01:31N 37°48' W 122°17'0 0.0
2015-Jul-23 00:31N 37°48' W 122°17'0 0.0
2015-Jul-22 23:31N 37°48' W 122°17'0 0.0
2015-Jul-22 22:31N 37°48' W 122°17'0 0.0
2015-Jul-22 21:31N 37°48' W 122°17'0 0.0
2015-Jul-22 20:31N 37°48' W 122°17'0 0.0
2015-Jul-22 19:31N 37°48' W 122°17'0 0.0
2015-Jul-22 18:31N 37°48' W 122°17'  

Dump ship's entire track history